메인 페이지
METAR-TAF:

METAR-TAF

공항 :

Monticello Municipal Airport/Ellis Field

Monticello, 아칸소, 미국

위도: 33-38-18N, 경도: 091-45-04W, 고도: 82m

현재 날씨관측

예보는 23분 전, 00:53시(UTC)에 발표되었습니다.
무풍
온도 4°C
습도 75%
기압 1021 hPa
시정: 16.1km
맑음

METAR: KLLQ 170053Z AUTO 00000KT 10SM CLR 04/00 A3015 RMK AO2 SLP211 T00390000

시각: 19:16 (01:16 UTC)

예보

예보는 1 시간 54분 전, 23:22시(UTC)에 발표되었습니다.
예보 대상 시간: 17일 00시부터 17일 24시까지 (UTC)
여러 방향의 바람 3kt
시정: 10km
맑음
17일 1800시부터 (UTC)
남서5kt
시정: 10km
고도 25000ft 상공 구름 조금

TAF: KLLQ 162322Z 1700/1724 VRB03KT P6SM SKC FM171800 23005KT P6SM FEW250

4,000개 이상의 공항 관측 자료 및 예보 (METAR 및 TAF 보고).

지도상에서 검색 가능한 기상관측소가 노란 점과 빨간 점으로 표시되어 있습니다.

기상관측소 명을 보려면 표시 위로 마우스를 이동하세요.

날씨 관측과 예보를 보려면 클릭하세요.

지도 변경 : 확대하려면 엑스 표시가 있는 녹색 버튼, 축소하려면 빼기 표시가 있는 녹색 버튼, 다음 페이지의 지도를 보려면 녹색 화살표를 클릭하세요.


METAR-TAF: